sensor_id;sensor_type;location;lat;lon;timestamp;noise_LAeq;noise_LA_min;noise_LA_max;noise_LA01;noise_LA95
47109;Laerm;32856;51.422;6.794;2022-11-04T00:00:21;51.38;46.07;63.62;;
47109;Laerm;32856;51.422;6.794;2022-11-04T00:02:52;53.08;44.03;70.49;;
47109;Laerm;32856;51.422;6.794;2022-11-04T00:05:19;50.05;45.01;68.57;;
47109;Laerm;32856;51.422;6.794;2022-11-04T00:07:47;47.20;43.09;51.50;;
47109;Laerm;32856;51.422;6.794;2022-11-04T00:10:32;52.05;45.89;63.19;;
47109;Laerm;32856;51.422;6.794;2022-11-04T00:13:13;53.08;44.87;74.51;;
47109;Laerm;32856;51.422;6.794;2022-11-04T00:15:42;48.73;44.23;57.67;;
47109;Laerm;32856;51.422;6.794;2022-11-04T00:18:27;51.66;44.69;65.78;;
47109;Laerm;32856;51.422;6.794;2022-11-04T00:20:55;51.48;43.81;69.98;;
47109;Laerm;32856;51.422;6.794;2022-11-04T00:23:40;52.52;44.90;64.14;;
47109;Laerm;32856;51.422;6.794;2022-11-04T00:26:25;48.34;44.39;56.78;;
47109;Laerm;32856;51.422;6.794;2022-11-04T00:29:10;53.78;45.69;72.58;;
47109;Laerm;32856;51.422;6.794;2022-11-04T00:31:39;49.97;44.97;65.45;;
47109;Laerm;32856;51.422;6.794;2022-11-04T00:34:24;48.88;44.01;53.82;;
47109;Laerm;32856;51.422;6.794;2022-11-04T00:36:51;50.87;44.87;55.70;;
47109;Laerm;32856;51.422;6.794;2022-11-04T00:39:19;49.36;44.80;54.52;;
47109;Laerm;32856;51.422;6.794;2022-11-04T00:41:46;50.10;44.11;66.46;;
47109;Laerm;32856;51.422;6.794;2022-11-04T00:44:14;47.52;42.93;51.88;;
47109;Laerm;32856;51.422;6.794;2022-11-04T00:46:42;49.06;42.88;63.48;;
47109;Laerm;32856;51.422;6.794;2022-11-04T00:49:10;50.32;44.23;57.07;;
47109;Laerm;32856;51.422;6.794;2022-11-04T00:51:38;48.54;43.99;54.16;;
47109;Laerm;32856;51.422;6.794;2022-11-04T00:54:05;51.78;44.97;60.57;;
47109;Laerm;32856;51.422;6.794;2022-11-04T00:56:35;52.11;45.14;71.67;;
47109;Laerm;32856;51.422;6.794;2022-11-04T00:59:03;54.16;46.23;70.81;;
47109;Laerm;32856;51.422;6.794;2022-11-04T01:01:33;50.93;46.64;56.71;;
47109;Laerm;32856;51.422;6.794;2022-11-04T01:04:02;54.56;46.20;71.91;;
47109;Laerm;32856;51.422;6.794;2022-11-04T01:06:29;52.89;47.18;59.80;;
47109;Laerm;32856;51.422;6.794;2022-11-04T01:08:58;51.15;47.57;60.25;;
47109;Laerm;32856;51.422;6.794;2022-11-04T01:11:26;50.24;43.34;57.05;;
47109;Laerm;32856;51.422;6.794;2022-11-04T01:13:54;51.46;47.77;56.90;;
47109;Laerm;32856;51.422;6.794;2022-11-04T01:16:22;48.37;44.15;53.23;;
47109;Laerm;32856;51.422;6.794;2022-11-04T01:18:50;53.94;45.48;62.73;;
47109;Laerm;32856;51.422;6.794;2022-11-04T01:21:19;51.49;46.56;59.28;;
47109;Laerm;32856;51.422;6.794;2022-11-04T01:23:46;48.77;43.86;54.60;;
47109;Laerm;32856;51.422;6.794;2022-11-04T01:26:14;48.78;44.43;53.90;;
47109;Laerm;32856;51.422;6.794;2022-11-04T01:28:42;47.76;42.82;54.54;;
47109;Laerm;32856;51.422;6.794;2022-11-04T01:31:11;49.24;43.68;55.58;;
47109;Laerm;32856;51.422;6.794;2022-11-04T01:33:39;50.04;44.11;56.69;;
47109;Laerm;32856;51.422;6.794;2022-11-04T01:36:07;46.82;42.71;55.83;;
47109;Laerm;32856;51.422;6.794;2022-11-04T01:38:36;51.12;44.62;71.45;;
47109;Laerm;32856;51.422;6.794;2022-11-04T01:41:04;49.18;44.94;56.37;;
47109;Laerm;32856;51.422;6.794;2022-11-04T01:43:41;54.13;43.76;72.14;;
47109;Laerm;32856;51.422;6.794;2022-11-04T01:46:09;56.40;45.07;73.73;;
47109;Laerm;32856;51.422;6.794;2022-11-04T01:48:38;50.71;44.62;67.18;;
47109;Laerm;32856;51.422;6.794;2022-11-04T01:51:05;50.65;45.75;54.77;;
47109;Laerm;32856;51.422;6.794;2022-11-04T01:53:34;50.49;45.30;61.79;;
47109;Laerm;32856;51.422;6.794;2022-11-04T01:56:05;49.43;45.66;57.02;;
47109;Laerm;32856;51.422;6.794;2022-11-04T01:58:37;49.93;44.19;65.04;;
47109;Laerm;32856;51.422;6.794;2022-11-04T02:01:06;51.81;46.78;56.35;;
47109;Laerm;32856;51.422;6.794;2022-11-04T02:03:35;55.70;45.60;71.65;;
47109;Laerm;32856;51.422;6.794;2022-11-04T02:06:04;49.29;43.94;55.39;;
47109;Laerm;32856;51.422;6.794;2022-11-04T02:08:32;57.86;44.11;76.05;;
47109;Laerm;32856;51.422;6.794;2022-11-04T02:11:01;52.33;45.97;57.41;;
47109;Laerm;32856;51.422;6.794;2022-11-04T02:13:30;52.82;45.23;61.44;;
47109;Laerm;32856;51.422;6.794;2022-11-04T02:16:00;54.75;45.11;72.00;;
47109;Laerm;32856;51.422;6.794;2022-11-04T02:18:33;53.51;46.20;67.94;;
47109;Laerm;32856;51.422;6.794;2022-11-04T02:21:08;54.69;45.57;73.66;;
47109;Laerm;32856;51.422;6.794;2022-11-04T02:23:55;49.31;45.20;53.73;;
47109;Laerm;32856;51.422;6.794;2022-11-04T02:29:16;49.93;44.76;55.88;;
47109;Laerm;32856;51.422;6.794;2022-11-04T02:31:49;51.36;46.57;55.93;;
47109;Laerm;32856;51.422;6.794;2022-11-04T02:34:18;49.15;44.73;55.46;;
47109;Laerm;32856;51.422;6.794;2022-11-04T02:36:50;50.27;45.60;56.06;;
47109;Laerm;32856;51.422;6.794;2022-11-04T02:39:21;51.97;46.97;58.12;;
47109;Laerm;32856;51.422;6.794;2022-11-04T02:41:52;50.83;45.57;69.27;;
47109;Laerm;32856;51.422;6.794;2022-11-04T02:44:25;52.24;46.28;58.98;;
47109;Laerm;32856;51.422;6.794;2022-11-04T02:46:57;56.93;46.02;74.36;;
47109;Laerm;32856;51.422;6.794;2022-11-04T02:49:27;54.92;48.36;73.17;;
47109;Laerm;32856;51.422;6.794;2022-11-04T02:51:59;51.90;47.55;55.94;;
47109;Laerm;32856;51.422;6.794;2022-11-04T02:54:30;53.49;45.17;70.12;;
47109;Laerm;32856;51.422;6.794;2022-11-04T02:56:59;50.68;45.17;56.87;;
47109;Laerm;32856;51.422;6.794;2022-11-04T02:59:30;50.43;45.75;56.01;;
47109;Laerm;32856;51.422;6.794;2022-11-04T03:01:58;51.89;47.42;58.12;;
47109;Laerm;32856;51.422;6.794;2022-11-04T03:04:29;56.53;46.87;69.93;;
47109;Laerm;32856;51.422;6.794;2022-11-04T03:06:58;52.70;46.15;61.04;;
47109;Laerm;32856;51.422;6.794;2022-11-04T03:09:27;54.67;45.04;65.29;;
47109;Laerm;32856;51.422;6.794;2022-11-04T03:11:58;58.22;48.05;74.67;;
47109;Laerm;32856;51.422;6.794;2022-11-04T03:14:28;50.13;46.28;54.93;;
47109;Laerm;32856;51.422;6.794;2022-11-04T03:17:00;63.22;45.91;77.78;;
47109;Laerm;32856;51.422;6.794;2022-11-04T03:19:29;51.21;46.30;63.41;;
47109;Laerm;32856;51.422;6.794;2022-11-04T03:22:02;56.35;47.70;73.39;;
47109;Laerm;32856;51.422;6.794;2022-11-04T03:24:30;51.61;47.10;69.22;;
47109;Laerm;32856;51.422;6.794;2022-11-04T03:26:58;52.56;48.58;64.15;;
47109;Laerm;32856;51.422;6.794;2022-11-04T03:29:28;55.22;47.32;72.39;;
47109;Laerm;32856;51.422;6.794;2022-11-04T03:32:01;52.77;49.06;57.87;;
47109;Laerm;32856;51.422;6.794;2022-11-04T03:34:31;52.87;45.57;57.33;;
47109;Laerm;32856;51.422;6.794;2022-11-04T03:36:59;52.91;46.18;61.62;;
47109;Laerm;32856;51.422;6.794;2022-11-04T03:39:26;55.75;48.58;72.89;;
47109;Laerm;32856;51.422;6.794;2022-11-04T03:41:55;53.29;48.61;67.89;;
47109;Laerm;32856;51.422;6.794;2022-11-04T03:44:23;57.22;49.03;71.50;;
47109;Laerm;32856;51.422;6.794;2022-11-04T03:46:51;60.16;49.88;75.74;;
47109;Laerm;32856;51.422;6.794;2022-11-04T03:49:21;55.04;49.63;69.39;;
47109;Laerm;32856;51.422;6.794;2022-11-04T03:51:49;54.03;50.17;60.20;;
47109;Laerm;32856;51.422;6.794;2022-11-04T03:54:17;56.36;49.35;71.44;;
47109;Laerm;32856;51.422;6.794;2022-11-04T03:56:53;57.17;47.59;74.38;;
47109;Laerm;32856;51.422;6.794;2022-11-04T03:59:26;58.70;50.72;76.13;;
47109;Laerm;32856;51.422;6.794;2022-11-04T04:01:57;57.34;50.54;75.66;;
47109;Laerm;32856;51.422;6.794;2022-11-04T04:04:32;57.77;49.73;72.31;;
47109;Laerm;32856;51.422;6.794;2022-11-04T04:07:03;56.01;52.59;63.23;;
47109;Laerm;32856;51.422;6.794;2022-11-04T04:09:33;53.91;49.93;60.73;;
47109;Laerm;32856;51.422;6.794;2022-11-04T04:12:04;61.38;50.53;75.39;;
47109;Laerm;32856;51.422;6.794;2022-11-04T04:14:34;58.62;50.70;74.82;;
47109;Laerm;32856;51.422;6.794;2022-11-04T04:17:06;63.54;52.33;79.81;;
47109;Laerm;32856;51.422;6.794;2022-11-04T04:19:38;57.29;51.87;73.00;;
47109;Laerm;32856;51.422;6.794;2022-11-04T04:22:08;57.39;51.03;73.47;;
47109;Laerm;32856;51.422;6.794;2022-11-04T04:24:37;56.86;51.08;71.36;;
47109;Laerm;32856;51.422;6.794;2022-11-04T04:27:25;59.70;51.51;73.99;;
47109;Laerm;32856;51.422;6.794;2022-11-04T04:29:58;60.43;53.39;77.10;;
47109;Laerm;32856;51.422;6.794;2022-11-04T04:32:27;55.81;52.53;59.54;;
47109;Laerm;32856;51.422;6.794;2022-11-04T04:34:56;61.31;50.70;74.66;;
47109;Laerm;32856;51.422;6.794;2022-11-04T04:37:38;58.88;51.16;73.25;;
47109;Laerm;32856;51.422;6.794;2022-11-04T04:40:07;60.90;52.27;74.54;;
47109;Laerm;32856;51.422;6.794;2022-11-04T04:42:54;62.02;51.93;75.60;;
47109;Laerm;32856;51.422;6.794;2022-11-04T04:45:39;65.92;53.04;88.83;;
47109;Laerm;32856;51.422;6.794;2022-11-04T04:48:08;62.06;52.29;78.64;;
47109;Laerm;32856;51.422;6.794;2022-11-04T04:50:40;58.66;52.71;73.85;;
47109;Laerm;32856;51.422;6.794;2022-11-04T04:53:08;60.13;52.50;75.02;;
47109;Laerm;32856;51.422;6.794;2022-11-04T04:55:37;59.58;52.52;72.94;;
47109;Laerm;32856;51.422;6.794;2022-11-04T04:58:06;62.39;52.96;75.66;;
47109;Laerm;32856;51.422;6.794;2022-11-04T05:00:34;59.06;52.35;74.21;;
47109;Laerm;32856;51.422;6.794;2022-11-04T05:03:01;60.22;52.81;72.74;;
47109;Laerm;32856;51.422;6.794;2022-11-04T05:05:29;60.09;53.42;74.21;;
47109;Laerm;32856;51.422;6.794;2022-11-04T05:08:03;61.77;53.01;76.42;;
47109;Laerm;32856;51.422;6.794;2022-11-04T05:10:32;59.89;52.91;73.70;;
47109;Laerm;32856;51.422;6.794;2022-11-04T05:12:59;61.83;53.25;73.75;;
47109;Laerm;32856;51.422;6.794;2022-11-04T05:15:44;57.77;53.85;66.21;;
47109;Laerm;32856;51.422;6.794;2022-11-04T05:18:12;65.38;53.41;93.66;;
47109;Laerm;32856;51.422;6.794;2022-11-04T05:20:39;61.59;52.53;86.06;;
47109;Laerm;32856;51.422;6.794;2022-11-04T05:23:08;61.88;53.57;76.33;;
47109;Laerm;32856;51.422;6.794;2022-11-04T05:25:37;61.59;53.69;73.91;;
47109;Laerm;32856;51.422;6.794;2022-11-04T05:28:05;65.11;53.63;83.08;;
47109;Laerm;32856;51.422;6.794;2022-11-04T05:30:33;62.39;54.35;73.95;;
47109;Laerm;32856;51.422;6.794;2022-11-04T05:33:01;59.81;52.14;71.33;;
47109;Laerm;32856;51.422;6.794;2022-11-04T05:35:30;62.86;53.15;78.12;;
47109;Laerm;32856;51.422;6.794;2022-11-04T05:37:57;60.86;53.90;74.39;;
47109;Laerm;32856;51.422;6.794;2022-11-04T05:40:26;62.26;53.43;80.92;;
47109;Laerm;32856;51.422;6.794;2022-11-04T05:42:56;58.08;52.67;72.10;;
47109;Laerm;32856;51.422;6.794;2022-11-04T05:45:23;62.84;52.07;73.87;;
47109;Laerm;32856;51.422;6.794;2022-11-04T05:47:55;63.58;52.24;83.38;;
47109;Laerm;32856;51.422;6.794;2022-11-04T05:50:23;63.26;53.60;77.51;;
47109;Laerm;32856;51.422;6.794;2022-11-04T05:52:50;65.30;54.10;77.10;;
47109;Laerm;32856;51.422;6.794;2022-11-04T05:55:18;63.01;53.35;73.89;;
47109;Laerm;32856;51.422;6.794;2022-11-04T05:57:47;61.68;52.30;83.13;;
47109;Laerm;32856;51.422;6.794;2022-11-04T06:00:15;62.06;53.24;76.92;;
47109;Laerm;32856;51.422;6.794;2022-11-04T06:02:42;63.23;52.32;76.94;;
47109;Laerm;32856;51.422;6.794;2022-11-04T06:05:10;60.47;52.50;73.90;;
47109;Laerm;32856;51.422;6.794;2022-11-04T06:07:37;63.05;53.77;75.57;;
47109;Laerm;32856;51.422;6.794;2022-11-04T06:10:05;66.55;53.75;86.34;;
47109;Laerm;32856;51.422;6.794;2022-11-04T06:12:33;64.14;52.66;78.11;;
47109;Laerm;32856;51.422;6.794;2022-11-04T06:15:02;63.65;53.22;73.90;;
47109;Laerm;32856;51.422;6.794;2022-11-04T06:17:29;61.42;53.29;73.04;;
47109;Laerm;32856;51.422;6.794;2022-11-04T06:19:57;64.71;53.86;80.82;;
47109;Laerm;32856;51.422;6.794;2022-11-04T06:22:24;64.25;53.63;74.30;;
47109;Laerm;32856;51.422;6.794;2022-11-04T06:24:52;65.04;54.62;78.87;;
47109;Laerm;32856;51.422;6.794;2022-11-04T06:27:19;64.72;53.90;78.81;;
47109;Laerm;32856;51.422;6.794;2022-11-04T06:29:47;63.12;54.26;75.81;;
47109;Laerm;32856;51.422;6.794;2022-11-04T06:32:17;65.86;55.65;78.61;;
47109;Laerm;32856;51.422;6.794;2022-11-04T06:34:44;63.37;54.66;75.20;;
47109;Laerm;32856;51.422;6.794;2022-11-04T06:37:12;65.25;54.92;78.10;;
47109;Laerm;32856;51.422;6.794;2022-11-04T06:39:39;63.70;54.37;78.97;;
47109;Laerm;32856;51.422;6.794;2022-11-04T06:42:07;64.54;54.81;77.11;;
47109;Laerm;32856;51.422;6.794;2022-11-04T06:44:35;65.95;53.29;83.25;;
47109;Laerm;32856;51.422;6.794;2022-11-04T06:47:02;67.82;55.44;77.56;;
47109;Laerm;32856;51.422;6.794;2022-11-04T06:49:31;68.74;53.73;80.45;;
47109;Laerm;32856;51.422;6.794;2022-11-04T06:51:58;73.77;54.10;84.50;;
47109;Laerm;32856;51.422;6.794;2022-11-04T06:54:27;67.05;55.95;81.66;;
47109;Laerm;32856;51.422;6.794;2022-11-04T07:00:20;64.03;53.66;78.29;;
47109;Laerm;32856;51.422;6.794;2022-11-04T07:02:48;65.15;53.15;76.28;;
47109;Laerm;32856;51.422;6.794;2022-11-04T07:05:17;65.17;53.43;74.38;;
47109;Laerm;32856;51.422;6.794;2022-11-04T07:07:44;65.32;54.14;76.85;;
47109;Laerm;32856;51.422;6.794;2022-11-04T07:10:12;66.59;55.54;76.05;;
47109;Laerm;32856;51.422;6.794;2022-11-04T07:12:40;64.08;53.35;78.15;;
47109;Laerm;32856;51.422;6.794;2022-11-04T07:15:07;65.12;54.27;76.78;;
47109;Laerm;32856;51.422;6.794;2022-11-04T07:17:35;62.06;53.72;73.85;;
47109;Laerm;32856;51.422;6.794;2022-11-04T07:20:02;66.54;53.91;84.14;;
47109;Laerm;32856;51.422;6.794;2022-11-04T07:22:32;66.20;54.74;78.03;;
47109;Laerm;32856;51.422;6.794;2022-11-04T07:24:59;64.44;53.65;78.59;;
47109;Laerm;32856;51.422;6.794;2022-11-04T07:27:26;65.16;54.41;76.37;;
47109;Laerm;32856;51.422;6.794;2022-11-04T07:29:54;66.76;54.04;79.84;;
47109;Laerm;32856;51.422;6.794;2022-11-04T07:32:22;65.83;53.49;76.22;;
47109;Laerm;32856;51.422;6.794;2022-11-04T07:34:49;64.33;54.64;79.18;;
47109;Laerm;32856;51.422;6.794;2022-11-04T07:37:17;63.38;53.93;74.04;;
47109;Laerm;32856;51.422;6.794;2022-11-04T07:39:46;66.64;53.66;85.68;;
47109;Laerm;32856;51.422;6.794;2022-11-04T07:42:13;64.30;52.40;82.51;;
47109;Laerm;32856;51.422;6.794;2022-11-04T07:44:40;65.28;54.45;75.02;;
47109;Laerm;32856;51.422;6.794;2022-11-04T07:47:08;63.90;53.11;78.42;;
47109;Laerm;32856;51.422;6.794;2022-11-04T07:49:35;64.71;53.98;76.13;;
47109;Laerm;32856;51.422;6.794;2022-11-04T07:52:03;68.28;55.50;88.12;;
47109;Laerm;32856;51.422;6.794;2022-11-04T07:54:31;66.14;54.96;83.24;;
47109;Laerm;32856;51.422;6.794;2022-11-04T07:57:00;64.09;53.92;77.40;;
47109;Laerm;32856;51.422;6.794;2022-11-04T07:59:27;64.19;54.91;72.42;;
47109;Laerm;32856;51.422;6.794;2022-11-04T08:01:55;75.08;52.82;85.89;;
47109;Laerm;32856;51.422;6.794;2022-11-04T08:04:23;62.87;54.13;71.62;;
47109;Laerm;32856;51.422;6.794;2022-11-04T08:06:50;61.45;53.93;72.76;;
47109;Laerm;32856;51.422;6.794;2022-11-04T08:09:18;66.60;56.11;79.04;;
47109;Laerm;32856;51.422;6.794;2022-11-04T08:11:46;63.39;53.20;75.38;;
47109;Laerm;32856;51.422;6.794;2022-11-04T08:14:14;64.10;53.34;79.35;;
47109;Laerm;32856;51.422;6.794;2022-11-04T08:16:42;61.60;53.49;71.16;;
47109;Laerm;32856;51.422;6.794;2022-11-04T08:19:09;66.70;54.14;80.88;;
47109;Laerm;32856;51.422;6.794;2022-11-04T08:21:37;64.09;51.73;77.13;;
47109;Laerm;32856;51.422;6.794;2022-11-04T08:24:05;65.50;54.10;78.75;;
47109;Laerm;32856;51.422;6.794;2022-11-04T08:26:32;62.12;53.88;72.89;;
47109;Laerm;32856;51.422;6.794;2022-11-04T08:29:00;61.85;53.20;73.37;;
47109;Laerm;32856;51.422;6.794;2022-11-04T08:31:29;63.35;53.00;75.70;;
47109;Laerm;32856;51.422;6.794;2022-11-04T08:33:57;64.26;53.47;75.00;;
47109;Laerm;32856;51.422;6.794;2022-11-04T08:36:26;63.98;53.65;77.43;;
47109;Laerm;32856;51.422;6.794;2022-11-04T08:38:54;65.62;53.85;76.73;;
47109;Laerm;32856;51.422;6.794;2022-11-04T08:41:23;64.12;52.35;76.59;;
47109;Laerm;32856;51.422;6.794;2022-11-04T08:43:51;69.42;55.00;86.38;;
47109;Laerm;32856;51.422;6.794;2022-11-04T08:46:19;62.93;53.35;73.08;;
47109;Laerm;32856;51.422;6.794;2022-11-04T08:48:48;67.62;53.92;84.39;;
47109;Laerm;32856;51.422;6.794;2022-11-04T08:51:17;64.78;51.78;73.28;;
47109;Laerm;32856;51.422;6.794;2022-11-04T08:53:44;66.85;52.66;80.43;;
47109;Laerm;32856;51.422;6.794;2022-11-04T08:56:12;62.48;53.91;76.99;;
47109;Laerm;32856;51.422;6.794;2022-11-04T08:58:41;64.60;56.13;75.91;;
47109;Laerm;32856;51.422;6.794;2022-11-04T09:01:09;67.42;56.10;80.53;;
47109;Laerm;32856;51.422;6.794;2022-11-04T09:03:38;65.18;52.34;80.90;;
47109;Laerm;32856;51.422;6.794;2022-11-04T09:06:08;63.97;54.15;73.67;;
47109;Laerm;32856;51.422;6.794;2022-11-04T09:08:36;64.88;52.59;78.05;;
47109;Laerm;32856;51.422;6.794;2022-11-04T09:11:05;69.68;55.28;85.14;;
47109;Laerm;32856;51.422;6.794;2022-11-04T09:13:32;65.59;52.96;74.96;;
47109;Laerm;32856;51.422;6.794;2022-11-04T09:16:05;64.91;55.51;75.70;;
47109;Laerm;32856;51.422;6.794;2022-11-04T09:18:32;64.38;53.53;73.79;;
47109;Laerm;32856;51.422;6.794;2022-11-04T09:21:00;62.80;54.73;77.63;;
47109;Laerm;32856;51.422;6.794;2022-11-04T09:23:29;66.20;55.35;77.13;;
47109;Laerm;32856;51.422;6.794;2022-11-04T09:25:57;67.03;55.32;78.62;;
47109;Laerm;32856;51.422;6.794;2022-11-04T09:28:24;65.19;57.18;74.18;;
47109;Laerm;32856;51.422;6.794;2022-11-04T09:30:52;66.39;57.52;74.85;;
47109;Laerm;32856;51.422;6.794;2022-11-04T09:33:19;66.06;56.38;74.08;;
47109;Laerm;32856;51.422;6.794;2022-11-04T09:35:52;67.65;56.03;80.17;;
47109;Laerm;32856;51.422;6.794;2022-11-04T09:38:20;69.42;57.88;76.27;;
47109;Laerm;32856;51.422;6.794;2022-11-04T09:40:49;74.38;57.50;86.35;;
47109;Laerm;32856;51.422;6.794;2022-11-04T09:43:22;74.44;59.59;85.43;;
47109;Laerm;32856;51.422;6.794;2022-11-04T09:45:54;69.14;53.10;83.16;;
47109;Laerm;32856;51.422;6.794;2022-11-04T09:48:23;70.44;57.81;89.93;;
47109;Laerm;32856;51.422;6.794;2022-11-04T09:50:52;70.78;57.22;79.95;;
47109;Laerm;32856;51.422;6.794;2022-11-04T09:53:22;75.03;57.51;81.80;;
47109;Laerm;32856;51.422;6.794;2022-11-04T09:55:54;70.51;54.83;82.21;;
47109;Laerm;32856;51.422;6.794;2022-11-04T09:58:23;60.74;52.28;71.20;;
47109;Laerm;32856;51.422;6.794;2022-11-04T10:00:52;65.15;53.70;75.22;;
47109;Laerm;32856;51.422;6.794;2022-11-04T10:03:29;64.62;51.42;75.58;;
47109;Laerm;32856;51.422;6.794;2022-11-04T10:06:06;65.15;51.92;80.29;;
47109;Laerm;32856;51.422;6.794;2022-11-04T10:08:40;65.42;53.24;80.43;;
47109;Laerm;32856;51.422;6.794;2022-11-04T10:11:16;63.85;55.96;77.79;;
47109;Laerm;32856;51.422;6.794;2022-11-04T10:13:49;62.75;51.35;78.58;;
47109;Laerm;32856;51.422;6.794;2022-11-04T10:16:24;63.97;51.84;74.01;;
47109;Laerm;32856;51.422;6.794;2022-11-04T10:19:09;60.24;53.10;69.40;;
47109;Laerm;32856;51.422;6.794;2022-11-04T10:21:40;66.02;52.00;80.34;;
47109;Laerm;32856;51.422;6.794;2022-11-04T10:24:13;65.14;51.04;76.70;;
47109;Laerm;32856;51.422;6.794;2022-11-04T10:26:45;64.26;52.02;80.63;;
47109;Laerm;32856;51.422;6.794;2022-11-04T10:29:15;63.96;52.24;76.45;;
47109;Laerm;32856;51.422;6.794;2022-11-04T10:31:43;61.57;50.59;72.49;;
47109;Laerm;32856;51.422;6.794;2022-11-04T10:34:14;64.59;51.49;75.43;;
47109;Laerm;32856;51.422;6.794;2022-11-04T10:36:49;63.34;51.77;85.93;;
47109;Laerm;32856;51.422;6.794;2022-11-04T10:39:19;63.32;50.17;72.46;;
47109;Laerm;32856;51.422;6.794;2022-11-04T10:41:50;62.90;50.92;79.16;;
47109;Laerm;32856;51.422;6.794;2022-11-04T10:44:19;62.02;50.72;71.88;;
47109;Laerm;32856;51.422;6.794;2022-11-04T10:46:50;65.71;51.01;77.09;;
47109;Laerm;32856;51.422;6.794;2022-11-04T10:52:20;62.93;52.21;73.92;;
47109;Laerm;32856;51.422;6.794;2022-11-04T10:54:48;70.30;53.79;81.47;;
47109;Laerm;32856;51.422;6.794;2022-11-04T10:57:18;69.65;55.65;87.70;;
47109;Laerm;32856;51.422;6.794;2022-11-04T10:59:51;65.26;53.91;77.36;;
47109;Laerm;32856;51.422;6.794;2022-11-04T11:05:11;66.44;52.83;79.08;;
47109;Laerm;32856;51.422;6.794;2022-11-04T11:07:39;64.70;52.31;74.33;;
47109;Laerm;32856;51.422;6.794;2022-11-04T11:10:14;64.54;52.37;74.90;;
47109;Laerm;32856;51.422;6.794;2022-11-04T11:12:44;66.59;53.03;80.84;;
47109;Laerm;32856;51.422;6.794;2022-11-04T11:15:20;67.01;53.50;78.81;;
47109;Laerm;32856;51.422;6.794;2022-11-04T11:17:52;65.47;52.45;75.87;;
47109;Laerm;32856;51.422;6.794;2022-11-04T11:20:23;61.26;51.37;73.11;;
47109;Laerm;32856;51.422;6.794;2022-11-04T11:22:52;65.65;52.41;79.50;;
47109;Laerm;32856;51.422;6.794;2022-11-04T11:25:26;64.80;49.98;77.44;;
47109;Laerm;32856;51.422;6.794;2022-11-04T11:27:56;63.90;49.12;74.11;;
47109;Laerm;32856;51.422;6.794;2022-11-04T11:30:25;65.96;50.21;79.08;;
47109;Laerm;32856;51.422;6.794;2022-11-04T11:32:55;65.68;52.72;78.65;;
47109;Laerm;32856;51.422;6.794;2022-11-04T11:35:25;63.78;52.69;74.69;;
47109;Laerm;32856;51.422;6.794;2022-11-04T11:37:54;65.33;51.26;80.55;;
47109;Laerm;32856;51.422;6.794;2022-11-04T11:40:25;64.17;52.81;79.03;;
47109;Laerm;32856;51.422;6.794;2022-11-04T11:42:53;63.38;51.21;73.38;;
47109;Laerm;32856;51.422;6.794;2022-11-04T11:45:23;64.59;50.83;74.84;;
47109;Laerm;32856;51.422;6.794;2022-11-04T11:47:51;68.94;50.95;84.31;;
47109;Laerm;32856;51.422;6.794;2022-11-04T11:50:22;67.20;50.77;79.92;;
47109;Laerm;32856;51.422;6.794;2022-11-04T11:53:05;65.15;49.75;77.15;;
47109;Laerm;32856;51.422;6.794;2022-11-04T11:55:34;65.93;51.76;77.17;;
47109;Laerm;32856;51.422;6.794;2022-11-04T11:58:04;65.85;49.44;79.45;;
47109;Laerm;32856;51.422;6.794;2022-11-04T12:00:58;67.86;51.03;82.08;;
47109;Laerm;32856;51.422;6.794;2022-11-04T12:03:36;68.09;49.64;85.63;;
47109;Laerm;32856;51.422;6.794;2022-11-04T12:06:31;68.38;51.61;84.70;;
47109;Laerm;32856;51.422;6.794;2022-11-04T12:09:26;67.64;55.18;81.90;;
47109;Laerm;32856;51.422;6.794;2022-11-04T12:12:02;66.59;52.93;79.41;;
47109;Laerm;32856;51.422;6.794;2022-11-04T12:14:40;67.17;50.61;77.90;;
47109;Laerm;32856;51.422;6.794;2022-11-04T12:17:18;67.04;49.46;84.66;;
47109;Laerm;32856;51.422;6.794;2022-11-04T12:19:55;66.68;49.49;80.12;;
47109;Laerm;32856;51.422;6.794;2022-11-04T12:22:31;66.72;49.36;76.54;;
47109;Laerm;32856;51.422;6.794;2022-11-04T12:25:03;65.31;50.91;74.67;;
47109;Laerm;32856;51.422;6.794;2022-11-04T12:27:36;65.83;51.13;81.17;;
47109;Laerm;32856;51.422;6.794;2022-11-04T12:30:06;66.35;53.92;77.42;;
47109;Laerm;32856;51.422;6.794;2022-11-04T12:32:40;65.82;51.16;81.92;;
47109;Laerm;32856;51.422;6.794;2022-11-04T12:35:15;64.57;50.86;74.59;;
47109;Laerm;32856;51.422;6.794;2022-11-04T12:37:50;66.20;51.78;78.03;;
47109;Laerm;32856;51.422;6.794;2022-11-04T12:40:24;67.24;50.05;79.50;;
47109;Laerm;32856;51.422;6.794;2022-11-04T12:45:44;66.75;49.35;80.61;;
47109;Laerm;32856;51.422;6.794;2022-11-04T12:48:21;65.57;52.17;75.89;;
47109;Laerm;32856;51.422;6.794;2022-11-04T12:50:57;67.14;53.25;77.73;;
47109;Laerm;32856;51.422;6.794;2022-11-04T12:53:45;66.73;49.52;79.73;;
47109;Laerm;32856;51.422;6.794;2022-11-04T12:56:16;66.35;48.74;77.78;;
47109;Laerm;32856;51.422;6.794;2022-11-04T12:58:49;67.67;48.20;81.68;;
47109;Laerm;32856;51.422;6.794;2022-11-04T13:01:22;66.55;48.98;75.00;;
47109;Laerm;32856;51.422;6.794;2022-11-04T13:03:54;66.59;48.87;82.54;;
47109;Laerm;32856;51.422;6.794;2022-11-04T13:06:24;65.58;48.77;76.33;;
47109;Laerm;32856;51.422;6.794;2022-11-04T13:08:55;67.86;52.54;78.40;;
47109;Laerm;32856;51.422;6.794;2022-11-04T13:11:25;66.78;50.79;75.27;;
47109;Laerm;32856;51.422;6.794;2022-11-04T13:13:57;67.13;50.19;80.17;;
47109;Laerm;32856;51.422;6.794;2022-11-04T13:16:27;65.82;53.77;76.17;;
47109;Laerm;32856;51.422;6.794;2022-11-04T13:18:57;69.05;52.21;85.94;;
47109;Laerm;32856;51.422;6.794;2022-11-04T13:21:26;66.89;48.32;80.20;;
47109;Laerm;32856;51.422;6.794;2022-11-04T13:23:55;65.89;50.99;78.11;;
47109;Laerm;32856;51.422;6.794;2022-11-04T13:26:24;64.76;48.48;72.77;;
47109;Laerm;32856;51.422;6.794;2022-11-04T13:28:54;65.62;47.10;75.73;;
47109;Laerm;32856;51.422;6.794;2022-11-04T13:31:34;67.86;46.57;81.76;;
47109;Laerm;32856;51.422;6.794;2022-11-04T13:34:08;64.83;47.93;75.04;;
47109;Laerm;32856;51.422;6.794;2022-11-04T13:36:39;66.39;48.08;81.46;;
47109;Laerm;32856;51.422;6.794;2022-11-04T13:39:11;68.07;52.13;90.22;;
47109;Laerm;32856;51.422;6.794;2022-11-04T13:42:04;65.62;51.23;76.23;;
47109;Laerm;32856;51.422;6.794;2022-11-04T13:44:36;65.47;52.04;76.95;;
47109;Laerm;32856;51.422;6.794;2022-11-04T13:47:12;64.64;50.94;74.19;;
47109;Laerm;32856;51.422;6.794;2022-11-04T13:49:48;66.18;48.67;75.37;;
47109;Laerm;32856;51.422;6.794;2022-11-04T13:52:16;64.98;50.25;76.60;;
47109;Laerm;32856;51.422;6.794;2022-11-04T13:54:45;67.50;52.36;79.95;;
47109;Laerm;32856;51.422;6.794;2022-11-04T13:57:13;65.57;53.79;73.34;;
47109;Laerm;32856;51.422;6.794;2022-11-04T13:59:42;66.65;48.20;78.96;;
47109;Laerm;32856;51.422;6.794;2022-11-04T14:02:38;66.02;47.84;76.44;;
47109;Laerm;32856;51.422;6.794;2022-11-04T14:10:39;66.16;47.63;84.68;;
47109;Laerm;32856;51.422;6.794;2022-11-04T14:15:59;65.00;50.57;81.96;;
47109;Laerm;32856;51.422;6.794;2022-11-04T14:18:28;65.45;48.08;78.47;;
47109;Laerm;32856;51.422;6.794;2022-11-04T14:21:08;65.94;55.16;77.64;;
47109;Laerm;32856;51.422;6.794;2022-11-04T14:23:38;65.06;49.08;75.23;;
47109;Laerm;32856;51.422;6.794;2022-11-04T14:26:09;64.40;47.34;74.05;;